Time;durP1;ratioP1;P1;durP2;ratioP2;P2;SDS_P1;SDS_P2;PMS_P1;PMS_P2;Temp;Humidity;BMP_temperature;BMP_pressure;BME280_temperature;BME280_humidity;BME280_pressure;Samples;Min_cycle;Max_cycle;Signal;HPM_P1;HPM_P2
2023/05/07 00:00:19;;;;;;;13.40;12.00;;;10.30;99.90;;;;;;5019379;28;20694;-75
2023/05/07 00:02:45;;;;;;;12.27;10.97;;;10.30;99.90;;;;;;5017753;28;20212;-70
2023/05/07 00:05:11;;;;;;;12.83;11.47;;;10.20;99.90;;;;;;5019711;28;20605;-69
2023/05/07 00:07:37;;;;;;;12.73;11.50;;;10.20;99.90;;;;;;5019881;28;20206;-70
2023/05/07 00:10:03;;;;;;;12.33;10.53;;;10.40;99.90;;;;;;5020467;28;20196;-70
2023/05/07 00:12:33;;;;;;;11.10;10.00;;;10.40;99.90;;;;;;5026040;28;20251;-69
2023/05/07 00:15:00;;;;;;;10.83;9.73;;;10.20;99.90;;;;;;5020071;28;20257;-69
2023/05/07 00:17:26;;;;;;;11.17;10.07;;;10.20;99.90;;;;;;5021499;28;20219;-69
2023/05/07 00:19:51;;;;;;;11.47;10.37;;;10.20;99.90;;;;;;5019277;28;20203;-71
2023/05/07 00:22:17;;;;;;;12.50;10.70;;;10.10;99.90;;;;;;5020924;28;20197;-69
2023/05/07 00:24:42;;;;;;;12.60;11.30;;;10.10;99.90;;;;;;5026585;28;20211;-69
2023/05/07 00:27:08;;;;;;;11.97;10.23;;;10.30;99.90;;;;;;5026206;28;20297;-70
2023/05/07 00:29:34;;;;;;;15.30;11.17;;;10.30;99.90;;;;;;5025934;28;20687;-68
2023/05/07 00:31:59;;;;;;;13.13;9.90;;;10.30;99.90;;;;;;5023372;28;20233;-70
2023/05/07 00:34:24;;;;;;;12.27;10.50;;;10.00;99.90;;;;;;5024985;28;20220;-69
2023/05/07 00:36:50;;;;;;;11.20;10.07;;;10.20;99.90;;;;;;5023200;28;20268;-67
2023/05/07 00:39:15;;;;;;;12.10;10.83;;;10.30;99.90;;;;;;5025656;28;20265;-67
2023/05/07 00:41:41;;;;;;;11.23;10.07;;;10.40;99.90;;;;;;5026771;28;20210;-67
2023/05/07 00:44:06;;;;;;;10.43;9.43;;;10.40;99.90;;;;;;5026773;28;20555;-66
2023/05/07 00:46:32;;;;;;;9.60;8.80;;;10.50;99.90;;;;;;5026817;28;20238;-68
2023/05/07 00:48:59;;;;;;;10.83;8.90;;;10.40;99.90;;;;;;5026989;28;20220;-66
2023/05/07 00:51:27;;;;;;;10.00;9.03;;;10.40;99.90;;;;;;5020330;28;20205;-66
2023/05/07 00:53:53;;;;;;;11.20;9.00;;;10.30;99.90;;;;;;5019856;28;20199;-66
2023/05/07 00:56:21;;;;;;;10.77;9.67;;;10.40;99.90;;;;;;5025948;28;20212;-66
2023/05/07 00:58:46;;;;;;;10.00;9.00;;;10.40;99.90;;;;;;5026222;28;20210;-66
2023/05/07 01:01:12;;;;;;;9.77;8.50;;;10.30;99.90;;;;;;5026011;28;20584;-67
2023/05/07 01:03:38;;;;;;;9.87;8.83;;;10.30;99.90;;;;;;5024495;28;20217;-67
2023/05/07 01:06:06;;;;;;;9.83;8.83;;;10.30;99.90;;;;;;5030159;28;20523;-67
2023/05/07 01:08:32;;;;;;;9.67;8.77;;;10.30;99.90;;;;;;5025359;28;20205;-67
2023/05/07 01:10:59;;;;;;;11.57;9.63;;;10.20;99.90;;;;;;5025577;28;20211;-67
2023/05/07 01:13:25;;;;;;;10.53;9.43;;;10.10;99.90;;;;;;5024369;28;20257;-68
2023/05/07 01:15:50;;;;;;;11.40;10.23;;;10.20;99.90;;;;;;5025805;28;20238;-66
2023/05/07 01:18:16;;;;;;;11.20;9.40;;;10.20;99.90;;;;;;5024908;28;20669;-69
2023/05/07 01:20:42;;;;;;;9.57;8.67;;;10.10;99.90;;;;;;5025716;28;20212;-67
2023/05/07 01:23:09;;;;;;;9.83;8.93;;;10.10;99.90;;;;;;5025574;28;20200;-68
2023/05/07 01:25:35;;;;;;;9.93;8.93;;;10.20;99.90;;;;;;5020293;28;20283;-65
2023/05/07 01:28:01;;;;;;;9.80;8.63;;;10.20;99.90;;;;;;5023222;28;20300;-67
2023/05/07 01:30:27;;;;;;;9.30;8.47;;;10.20;99.90;;;;;;5026449;28;20295;-67
2023/05/07 01:33:09;;;;;;;9.90;9.00;;;10.20;99.90;;;;;;5026466;28;20207;-66
2023/05/07 01:35:40;;;;;;;10.23;8.77;;;10.20;99.90;;;;;;5025033;28;20198;-65
2023/05/07 01:38:06;;;;;;;9.70;8.80;;;10.40;99.90;;;;;;5025362;28;20931;-65
2023/05/07 01:40:32;;;;;;;8.70;7.80;;;10.30;99.90;;;;;;5028304;28;20707;-65
2023/05/07 01:42:58;;;;;;;10.13;9.13;;;10.40;99.90;;;;;;5021990;28;20200;-67
2023/05/07 01:45:25;;;;;;;10.67;8.33;;;10.20;99.90;;;;;;5023949;28;20193;-67
2023/05/07 01:47:52;;;;;;;9.13;8.23;;;10.10;99.90;;;;;;5026057;28;20199;-66
2023/05/07 01:50:20;;;;;;;9.17;8.37;;;10.30;99.90;;;;;;5026823;28;20283;-66
2023/05/07 01:52:46;;;;;;;11.60;8.80;;;10.50;99.90;;;;;;5026643;28;20199;-66
2023/05/07 01:55:11;;;;;;;12.07;8.43;;;10.40;99.90;;;;;;5023954;28;20699;-66
2023/05/07 01:57:37;;;;;;;8.53;7.83;;;10.40;99.90;;;;;;5024968;28;20217;-66
2023/05/07 02:00:04;;;;;;;8.33;7.63;;;10.40;99.90;;;;;;5024874;28;20808;-67
2023/05/07 02:02:30;;;;;;;11.77;8.97;;;10.50;99.90;;;;;;5025141;28;23055;-66
2023/05/07 02:04:56;;;;;;;8.97;7.90;;;10.40;99.90;;;;;;5025449;28;20200;-66
2023/05/07 02:07:22;;;;;;;9.53;8.37;;;10.30;99.90;;;;;;5025168;28;20295;-65
2023/05/07 02:09:47;;;;;;;10.67;9.57;;;10.30;99.90;;;;;;5023583;28;20289;-66
2023/05/07 02:12:13;;;;;;;10.07;9.17;;;10.20;99.90;;;;;;5026525;28;20235;-66
2023/05/07 02:14:38;;;;;;;10.93;9.10;;;10.20;99.90;;;;;;5025836;28;20199;-66
2023/05/07 02:17:03;;;;;;;10.57;9.67;;;10.10;99.90;;;;;;5025702;28;20198;-66
2023/05/07 02:19:29;;;;;;;10.03;9.00;;;10.10;99.90;;;;;;5025659;28;20195;-66
2023/05/07 02:21:55;;;;;;;10.13;9.13;;;10.10;99.90;;;;;;5024228;28;20262;-66
2023/05/07 02:24:20;;;;;;;11.70;10.53;;;10.20;99.90;;;;;;5025006;28;20222;-66
2023/05/07 02:26:46;;;;;;;9.77;8.77;;;10.20;99.90;;;;;;5025030;28;20290;-67
2023/05/07 02:29:12;;;;;;;11.43;10.23;;;10.20;99.90;;;;;;5028044;28;20331;-66
2023/05/07 02:31:37;;;;;;;11.00;9.87;;;10.10;99.90;;;;;;5034125;28;20204;-67
2023/05/07 02:34:03;;;;;;;11.37;9.80;;;10.00;99.90;;;;;;5020119;28;20204;-67
2023/05/07 02:36:29;;;;;;;10.67;9.57;;;10.00;99.90;;;;;;5038161;28;20226;-66
2023/05/07 02:38:55;;;;;;;12.97;10.20;;;10.10;99.90;;;;;;5037931;28;20704;-67
2023/05/07 02:41:20;;;;;;;12.67;10.43;;;10.10;99.90;;;;;;5038434;28;20210;-67
2023/05/07 02:43:46;;;;;;;9.63;8.73;;;10.10;99.90;;;;;;5026695;28;20205;-66
2023/05/07 02:46:11;;;;;;;11.20;10.17;;;10.20;99.90;;;;;;5037853;28;20230;-67
2023/05/07 02:48:37;;;;;;;10.93;9.93;;;10.10;99.90;;;;;;5037073;28;20294;-67
2023/05/07 02:51:03;;;;;;;10.30;8.97;;;10.10;99.90;;;;;;5038406;28;20695;-66
2023/05/07 02:53:29;;;;;;;10.50;9.43;;;10.20;99.90;;;;;;5036405;28;20219;-66
2023/05/07 02:55:58;;;;;;;10.57;9.47;;;10.10;99.90;;;;;;5037789;28;20681;-66
2023/05/07 02:58:24;;;;;;;11.27;10.17;;;10.10;99.90;;;;;;5027560;28;20655;-66
2023/05/07 03:00:50;;;;;;;10.53;9.40;;;10.20;99.90;;;;;;5038043;28;20213;-66
2023/05/07 03:03:16;;;;;;;9.90;8.90;;;10.20;99.90;;;;;;5038141;28;20210;-67
2023/05/07 03:05:41;;;;;;;9.40;8.23;;;10.00;99.90;;;;;;5038269;28;20194;-66
2023/05/07 03:08:07;;;;;;;9.40;8.43;;;10.20;99.90;;;;;;5035977;28;20209;-68
2023/05/07 03:10:33;;;;;;;9.73;8.73;;;10.20;99.90;;;;;;5036892;28;20235;-66
2023/05/07 03:12:59;;;;;;;9.27;8.47;;;10.20;99.90;;;;;;5038586;28;20246;-66
2023/05/07 03:15:24;;;;;;;9.20;8.37;;;10.00;99.90;;;;;;5035255;28;20629;-66
2023/05/07 03:17:50;;;;;;;9.70;8.77;;;10.10;99.90;;;;;;5031057;28;20891;-66
2023/05/07 03:20:15;;;;;;;8.90;8.00;;;10.10;99.90;;;;;;5028728;28;20218;-66
2023/05/07 03:22:41;;;;;;;8.83;7.93;;;10.10;99.90;;;;;;5025984;28;20281;-66
2023/05/07 03:25:07;;;;;;;9.20;8.30;;;10.10;99.90;;;;;;5028501;28;20226;-66
2023/05/07 03:27:32;;;;;;;9.70;8.70;;;10.10;99.90;;;;;;5028396;28;20205;-65
2023/05/07 03:29:58;;;;;;;9.70;8.63;;;10.20;99.90;;;;;;5028551;28;20219;-66
2023/05/07 03:32:23;;;;;;;10.20;9.27;;;10.20;99.90;;;;;;5025391;28;20673;-66
2023/05/07 03:34:49;;;;;;;8.97;8.07;;;10.20;99.90;;;;;;5027392;28;20230;-66
2023/05/07 03:37:14;;;;;;;9.07;8.17;;;10.10;99.90;;;;;;5027317;28;20205;-66
2023/05/07 03:39:40;;;;;;;10.87;9.07;;;10.30;99.90;;;;;;5025040;28;20711;-66
2023/05/07 03:42:05;;;;;;;9.07;8.23;;;10.20;99.90;;;;;;5027276;28;20528;-65
2023/05/07 03:44:31;;;;;;;8.90;8.07;;;10.10;99.90;;;;;;5026506;28;20208;-66
2023/05/07 03:46:56;;;;;;;9.97;8.10;;;10.00;99.90;;;;;;5030602;28;20197;-66
2023/05/07 03:49:22;;;;;;;10.40;7.73;;;10.10;99.90;;;;;;5022903;28;20210;-66
2023/05/07 03:51:47;;;;;;;8.07;7.27;;;10.00;99.90;;;;;;5027923;28;20211;-68
2023/05/07 03:54:13;;;;;;;9.60;8.70;;;9.90;99.90;;;;;;5028479;28;20192;-66
2023/05/07 03:56:38;;;;;;;9.03;8.20;;;10.10;99.90;;;;;;5027783;28;20713;-67
2023/05/07 03:59:04;;;;;;;10.40;9.37;;;10.20;99.90;;;;;;5027913;28;20200;-65
2023/05/07 04:01:29;;;;;;;10.83;9.43;;;10.10;99.90;;;;;;5024853;28;20321;-66
2023/05/07 04:03:55;;;;;;;10.87;8.83;;;10.00;99.90;;;;;;5026159;28;20202;-68
2023/05/07 04:06:21;;;;;;;8.83;8.00;;;9.70;99.90;;;;;;5026602;28;20633;-65
2023/05/07 04:08:46;;;;;;;9.53;8.00;;;9.90;99.90;;;;;;5027065;28;20211;-71
2023/05/07 04:11:11;;;;;;;10.17;8.33;;;10.10;99.90;;;;;;5026682;28;20195;-66
2023/05/07 04:13:37;;;;;;;10.37;9.07;;;10.20;99.90;;;;;;5025079;28;20210;-66
2023/05/07 04:16:04;;;;;;;10.50;8.43;;;10.00;99.90;;;;;;5026415;28;20295;-66
2023/05/07 04:18:30;;;;;;;9.00;8.10;;;10.20;99.90;;;;;;5023709;28;20207;-64
2023/05/07 04:20:55;;;;;;;8.83;7.50;;;10.30;99.90;;;;;;5027580;28;20209;-66
2023/05/07 04:23:21;;;;;;;9.37;8.47;;;10.40;99.90;;;;;;5026579;28;20568;-65
2023/05/07 04:25:46;;;;;;;16.43;8.93;;;10.40;99.90;;;;;;5025954;28;20208;-65
2023/05/07 04:28:12;;;;;;;7.97;7.17;;;10.40;99.90;;;;;;5024764;28;20222;-65
2023/05/07 04:30:38;;;;;;;8.90;8.00;;;10.40;99.90;;;;;;5025714;28;20205;-65
2023/05/07 04:33:04;;;;;;;8.40;7.63;;;10.10;99.90;;;;;;5026071;28;20213;-66
2023/05/07 04:35:29;;;;;;;9.27;8.17;;;10.00;99.90;;;;;;5029037;28;20228;-65
2023/05/07 04:37:55;;;;;;;10.30;8.37;;;10.10;99.90;;;;;;5029672;28;20199;-66
2023/05/07 04:40:20;;;;;;;7.77;6.97;;;10.10;99.90;;;;;;5024177;28;20208;-66
2023/05/07 04:42:46;;;;;;;8.87;6.97;;;10.20;99.90;;;;;;5030403;28;20217;-66
2023/05/07 04:45:12;;;;;;;8.33;7.27;;;10.30;99.90;;;;;;5032254;28;20563;-66
2023/05/07 04:47:38;;;;;;;9.37;7.63;;;10.30;99.90;;;;;;5025921;28;20223;-66
2023/05/07 04:50:04;;;;;;;8.53;7.63;;;10.30;99.90;;;;;;5028194;28;20235;-66
2023/05/07 04:52:31;;;;;;;9.10;8.20;;;10.30;99.90;;;;;;5033957;28;20192;-66
2023/05/07 04:54:58;;;;;;;7.47;6.77;;;10.00;99.90;;;;;;5032207;28;20289;-67
2023/05/07 04:57:24;;;;;;;8.43;6.77;;;10.00;99.90;;;;;;5036054;28;20287;-66
2023/05/07 04:59:49;;;;;;;9.03;7.63;;;10.20;99.90;;;;;;5035665;28;20792;-66
2023/05/07 05:02:15;;;;;;;8.37;6.47;;;10.10;99.90;;;;;;5032715;28;20272;-67
2023/05/07 05:04:41;;;;;;;7.90;7.20;;;10.10;99.90;;;;;;5024251;28;20776;-65
2023/05/07 05:07:07;;;;;;;9.53;7.27;;;10.00;99.90;;;;;;5026074;28;20206;-66
2023/05/07 05:09:32;;;;;;;7.13;6.57;;;10.20;99.90;;;;;;5026222;28;20689;-66
2023/05/07 05:11:58;;;;;;;7.70;6.90;;;10.30;99.90;;;;;;5028453;28;20258;-65
2023/05/07 05:14:24;;;;;;;7.33;6.63;;;10.30;99.90;;;;;;5024029;28;20262;-65
2023/05/07 05:16:49;;;;;;;7.77;6.97;;;10.30;99.90;;;;;;5025076;28;20544;-66
2023/05/07 05:19:15;;;;;;;6.60;6.00;;;10.40;99.90;;;;;;5022745;28;20210;-65
2023/05/07 05:21:41;;;;;;;10.17;5.57;;;10.40;99.90;;;;;;5034292;28;20230;-67
2023/05/07 05:24:06;;;;;;;6.17;5.60;;;10.50;99.90;;;;;;5035724;28;20276;-66
2023/05/07 05:26:32;;;;;;;7.50;6.87;;;10.40;99.90;;;;;;5035864;28;20221;-66
2023/05/07 05:28:57;;;;;;;6.90;6.30;;;10.30;99.90;;;;;;5035930;28;20224;-66
2023/05/07 05:31:23;;;;;;;5.70;5.10;;;10.40;99.90;;;;;;5035399;28;20234;-66
2023/05/07 05:33:48;;;;;;;6.67;5.97;;;10.60;99.90;;;;;;5033523;28;20223;-65
2023/05/07 05:36:14;;;;;;;6.57;5.90;;;10.70;99.90;;;;;;5035812;28;20223;-66
2023/05/07 05:38:40;;;;;;;6.70;6.00;;;10.70;99.90;;;;;;5035785;28;20271;-65
2023/05/07 05:41:05;;;;;;;8.03;6.03;;;10.70;99.90;;;;;;5035387;28;20220;-66
2023/05/07 05:43:31;;;;;;;6.33;5.73;;;10.40;99.90;;;;;;5025831;28;20255;-65
2023/05/07 05:45:57;;;;;;;7.30;6.17;;;10.40;99.90;;;;;;5026618;28;20228;-66
2023/05/07 05:48:23;;;;;;;6.97;5.60;;;10.40;99.90;;;;;;5033257;28;20289;-65
2023/05/07 05:50:48;;;;;;;7.30;6.37;;;10.50;99.90;;;;;;5035226;28;20307;-66
2023/05/07 05:53:13;;;;;;;6.57;5.97;;;10.70;99.90;;;;;;5035193;28;20205;-66
2023/05/07 05:55:39;;;;;;;6.63;5.73;;;10.80;99.90;;;;;;5035122;28;20205;-67
2023/05/07 05:58:05;;;;;;;6.60;6.00;;;10.80;99.90;;;;;;5035594;28;20205;-66
2023/05/07 06:00:30;;;;;;;6.70;6.00;;;10.90;99.90;;;;;;5025611;28;20221;-65
2023/05/07 06:02:56;;;;;;;6.43;5.83;;;11.00;99.90;;;;;;5034584;28;20204;-65
2023/05/07 06:05:21;;;;;;;5.87;5.30;;;10.90;99.90;;;;;;5039552;28;20220;-66
2023/05/07 06:07:47;;;;;;;6.17;5.67;;;11.00;99.90;;;;;;5038848;28;20780;-65
2023/05/07 06:10:12;;;;;;;6.50;5.90;;;11.00;99.90;;;;;;5039185;28;20905;-65
2023/05/07 06:12:38;;;;;;;7.07;5.70;;;10.90;99.90;;;;;;5038130;28;20208;-65
2023/05/07 06:15:04;;;;;;;7.03;6.33;;;10.90;99.90;;;;;;5027474;28;20228;-67
2023/05/07 06:17:30;;;;;;;6.03;5.27;;;10.80;99.90;;;;;;5035967;28;20253;-68
2023/05/07 06:19:55;;;;;;;6.93;6.23;;;10.70;99.90;;;;;;5031707;28;20197;-67
2023/05/07 06:22:21;;;;;;;9.13;6.83;;;10.80;99.90;;;;;;5029580;28;20214;-66
2023/05/07 06:24:47;;;;;;;9.53;6.57;;;10.60;99.90;;;;;;5038574;28;20653;-67
2023/05/07 06:27:12;;;;;;;8.20;7.40;;;10.70;99.90;;;;;;5039382;28;20636;-66
2023/05/07 06:29:38;;;;;;;7.17;6.47;;;10.60;99.90;;;;;;5036402;28;20640;-67
2023/05/07 06:32:11;;;;;;;7.23;6.53;;;10.70;99.90;;;;;;5032539;28;20705;-66
2023/05/07 06:34:37;;;;;;;10.17;6.07;;;10.90;99.90;;;;;;5035740;28;20209;-66
2023/05/07 06:37:03;;;;;;;9.17;6.97;;;11.00;99.90;;;;;;5029633;28;20648;-65
2023/05/07 06:39:28;;;;;;;9.43;6.87;;;10.90;99.90;;;;;;5026275;28;20294;-67
2023/05/07 06:41:54;;;;;;;7.63;6.73;;;10.90;99.90;;;;;;5029126;28;20216;-67
2023/05/07 06:44:19;;;;;;;7.17;6.47;;;10.90;99.90;;;;;;5036479;28;20215;-66
2023/05/07 06:46:45;;;;;;;8.07;7.27;;;10.90;99.90;;;;;;5031187;28;20275;-66
2023/05/07 06:49:12;;;;;;;7.27;6.57;;;11.10;99.90;;;;;;5038294;28;20226;-66
2023/05/07 06:51:37;;;;;;;8.13;6.40;;;11.20;99.90;;;;;;5038268;28;20216;-66
2023/05/07 06:54:04;;;;;;;7.80;6.80;;;11.20;99.90;;;;;;5036399;28;20443;-66
2023/05/07 06:56:30;;;;;;;6.77;6.03;;;11.10;99.90;;;;;;5022922;28;20203;-67
2023/05/07 06:58:55;;;;;;;6.73;6.00;;;11.30;99.90;;;;;;5021193;28;21212;-67
2023/05/07 07:01:21;;;;;;;5.93;5.43;;;11.50;99.90;;;;;;5036068;28;20216;-66
2023/05/07 07:03:46;;;;;;;6.77;6.13;;;11.30;99.90;;;;;;5026914;28;20205;-66
2023/05/07 07:06:12;;;;;;;6.93;6.03;;;11.00;99.90;;;;;;5034532;28;20777;-67
2023/05/07 07:08:38;;;;;;;6.40;5.73;;;11.20;99.90;;;;;;5022705;28;20293;-65
2023/05/07 07:11:04;;;;;;;7.13;6.43;;;11.50;99.90;;;;;;5023750;28;20218;-66
2023/05/07 07:13:30;;;;;;;6.27;5.57;;;11.70;99.90;;;;;;5022660;28;20235;-66
2023/05/07 07:15:55;;;;;;;7.00;5.47;;;11.80;99.90;;;;;;5024641;28;20211;-67
2023/05/07 07:18:21;;;;;;;8.37;6.33;;;11.80;99.90;;;;;;5036442;28;20222;-66
2023/05/07 07:20:46;;;;;;;5.50;5.00;;;11.90;99.90;;;;;;5037492;28;20714;-66
2023/05/07 07:23:12;;;;;;;6.77;4.87;;;12.00;99.90;;;;;;5038064;28;20511;-66
2023/05/07 07:25:37;;;;;;;5.63;4.47;;;12.10;99.90;;;;;;5028258;28;20756;-66
2023/05/07 07:28:03;;;;;;;5.73;5.13;;;11.90;99.90;;;;;;5030078;28;20242;-66
2023/05/07 07:30:28;;;;;;;7.37;4.97;;;12.00;99.90;;;;;;5036128;28;20748;-66
2023/05/07 07:32:54;;;;;;;6.07;5.47;;;12.10;99.90;;;;;;5037745;28;20679;-65
2023/05/07 07:35:20;;;;;;;6.23;4.47;;;12.20;99.90;;;;;;5027347;28;20712;-65
2023/05/07 07:37:46;;;;;;;6.97;5.60;;;12.20;99.90;;;;;;5036092;28;20201;-65
2023/05/07 07:40:12;;;;;;;5.33;4.87;;;12.10;99.90;;;;;;5027572;28;20304;-66
2023/05/07 07:42:38;;;;;;;5.50;4.90;;;12.20;99.90;;;;;;5021153;28;20743;-65
2023/05/07 07:45:04;;;;;;;4.77;4.37;;;12.10;99.90;;;;;;5031425;28;20201;-67
2023/05/07 07:47:29;;;;;;;4.20;3.73;;;12.30;99.90;;;;;;5035084;28;20209;-65
2023/05/07 07:49:55;;;;;;;4.27;3.87;;;12.10;99.90;;;;;;5031754;28;20201;-65
2023/05/07 07:52:20;;;;;;;6.10;4.30;;;12.10;99.90;;;;;;5021220;28;20671;-67
2023/05/07 07:54:46;;;;;;;6.27;3.70;;;12.00;99.90;;;;;;5022074;28;20368;-65
2023/05/07 07:57:11;;;;;;;5.30;3.97;;;12.10;99.90;;;;;;5020809;28;20197;-66
2023/05/07 07:59:37;;;;;;;4.97;4.03;;;12.10;99.90;;;;;;5025960;28;20607;-73
2023/05/07 08:02:02;;;;;;;3.77;3.47;;;12.10;99.90;;;;;;5030917;28;20203;-74
2023/05/07 08:04:28;;;;;;;4.60;3.50;;;12.10;99.90;;;;;;5027494;28;20251;-72
2023/05/07 08:06:54;;;;;;;4.40;3.90;;;12.20;99.90;;;;;;5037233;28;20209;-73
2023/05/07 08:09:20;;;;;;;4.20;3.80;;;12.30;99.90;;;;;;5037069;28;20208;-71
2023/05/07 08:11:45;;;;;;;4.03;3.73;;;12.50;99.90;;;;;;5036187;28;20359;-66
2023/05/07 08:14:11;;;;;;;3.67;3.37;;;12.70;99.90;;;;;;5019816;28;20513;-64
2023/05/07 08:16:36;;;;;;;3.37;3.00;;;13.00;99.90;;;;;;5026727;28;20205;-63
2023/05/07 08:19:02;;;;;;;5.17;3.83;;;13.00;99.90;;;;;;5029350;28;20300;-63
2023/05/07 08:21:28;;;;;;;3.63;3.33;;;12.90;99.90;;;;;;5032698;28;20663;-64
2023/05/07 08:23:53;;;;;;;3.40;3.10;;;12.90;99.90;;;;;;5037075;28;20195;-66
2023/05/07 08:26:18;;;;;;;3.33;3.03;;;12.90;99.90;;;;;;5034424;28;20686;-66
2023/05/07 08:28:44;;;;;;;5.23;3.77;;;13.10;99.90;;;;;;5036689;28;20219;-65
2023/05/07 08:31:09;;;;;;;4.50;3.67;;;13.20;99.90;;;;;;5036577;28;20286;-64
2023/05/07 08:33:35;;;;;;;4.37;3.83;;;13.20;99.90;;;;;;5036469;28;20573;-65
2023/05/07 08:36:00;;;;;;;3.57;3.30;;;13.30;99.90;;;;;;5036384;28;20210;-65
2023/05/07 08:38:26;;;;;;;2.77;2.50;;;13.20;99.90;;;;;;5034762;28;20202;-62
2023/05/07 08:40:52;;;;;;;3.73;2.63;;;13.20;99.90;;;;;;5036464;28;20213;-65
2023/05/07 08:43:19;;;;;;;3.77;2.87;;;13.30;99.90;;;;;;5036280;28;20226;-67
2023/05/07 08:45:46;;;;;;;3.20;2.90;;;13.60;99.90;;;;;;5029046;28;20191;-66
2023/05/07 08:48:16;;;;;;;4.00;3.00;;;13.80;99.90;;;;;;5034740;28;20191;-65
2023/05/07 08:50:42;;;;;;;3.30;3.00;;;13.60;99.90;;;;;;5025034;28;20216;-63
2023/05/07 08:53:07;;;;;;;3.17;2.93;;;13.50;99.90;;;;;;5033452;28;20195;-68
2023/05/07 08:55:33;;;;;;;3.13;2.70;;;13.80;99.90;;;;;;5024923;28;20203;-68
2023/05/07 08:57:59;;;;;;;5.10;2.90;;;13.80;99.90;;;;;;5027952;28;20199;-67
2023/05/07 09:00:25;;;;;;;4.70;2.87;;;13.90;99.90;;;;;;5021940;28;20311;-66
2023/05/07 09:02:51;;;;;;;3.33;3.03;;;13.90;99.90;;;;;;5034623;28;20201;-66
2023/05/07 09:05:17;;;;;;;3.17;2.87;;;13.90;99.90;;;;;;5036242;28;20222;-66
2023/05/07 09:07:42;;;;;;;3.40;3.10;;;13.70;99.90;;;;;;5028919;28;20581;-67
2023/05/07 09:10:08;;;;;;;3.43;3.13;;;13.90;99.90;;;;;;5033453;28;20296;-67
2023/05/07 09:12:36;;;;;;;3.10;2.90;;;14.10;99.90;;;;;;5032269;28;20223;-65
2023/05/07 09:15:02;;;;;;;3.00;2.70;;;14.10;99.90;;;;;;5023760;28;20212;-66
2023/05/07 09:17:28;;;;;;;3.30;3.00;;;14.10;99.90;;;;;;5023091;28;20759;-68
2023/05/07 09:19:53;;;;;;;3.70;3.10;;;14.30;99.90;;;;;;5026607;28;20277;-67
2023/05/07 09:22:19;;;;;;;3.23;3.00;;;14.40;99.90;;;;;;5022365;28;20856;-63
2023/05/07 09:24:49;;;;;;;3.80;2.77;;;14.50;99.90;;;;;;5024971;28;20309;-65
2023/05/07 09:27:14;;;;;;;4.97;3.50;;;14.70;99.90;;;;;;5017312;28;20200;-64
2023/05/07 09:29:40;;;;;;;3.27;2.97;;;14.60;99.90;;;;;;5025679;28;21101;-65
2023/05/07 09:32:07;;;;;;;2.97;2.77;;;14.50;99.90;;;;;;5026291;28;20229;-65
2023/05/07 09:34:34;;;;;;;5.67;2.97;;;14.50;99.90;;;;;;5018083;28;20206;-66
2023/05/07 09:37:04;;;;;;;3.07;2.80;;;14.30;99.90;;;;;;5016172;28;20806;-65
2023/05/07 09:39:43;;;;;;;2.97;2.73;;;14.40;99.90;;;;;;5018791;28;20202;-66
2023/05/07 09:42:09;;;;;;;3.07;2.83;;;14.40;99.90;;;;;;5019174;28;20573;-67
2023/05/07 09:44:35;;;;;;;3.77;2.87;;;14.50;99.90;;;;;;5018796;28;20230;-67
2023/05/07 09:47:04;;;;;;;4.17;3.07;;;14.40;99.90;;;;;;5022172;28;20634;-68
2023/05/07 09:49:33;;;;;;;4.90;2.63;;;14.50;99.90;;;;;;5018900;28;20657;-67
2023/05/07 09:52:00;;;;;;;3.00;2.80;;;14.60;99.90;;;;;;5017996;28;20230;-66
2023/05/07 09:54:27;;;;;;;3.07;2.70;;;14.80;99.90;;;;;;5020392;28;20257;-67
2023/05/07 09:56:55;;;;;;;3.50;2.67;;;14.50;99.90;;;;;;5020880;28;20307;-67
2023/05/07 09:59:22;;;;;;;3.20;3.00;;;14.30;99.90;;;;;;5032820;28;20214;-66
2023/05/07 10:01:49;;;;;;;4.37;3.33;;;14.60;99.90;;;;;;5025756;28;20215;-64
2023/05/07 10:04:15;;;;;;;3.17;2.50;;;14.70;99.90;;;;;;5032124;28;20280;-66
2023/05/07 10:06:43;;;;;;;2.13;2.03;;;15.00;99.90;;;;;;5031544;28;20622;-66
2023/05/07 10:09:09;;;;;;;3.73;3.00;;;14.80;99.90;;;;;;5026744;28;20273;-66
2023/05/07 10:11:36;;;;;;;3.27;2.60;;;14.20;99.90;;;;;;5026061;28;20202;-66
2023/05/07 10:14:03;;;;;;;2.80;2.57;;;14.40;99.90;;;;;;5016398;28;20208;-65
2023/05/07 10:16:36;;;;;;;2.97;2.77;;;14.70;99.90;;;;;;5028123;28;20209;-67
2023/05/07 10:19:03;;;;;;;2.50;2.30;;;14.80;99.90;;;;;;5020314;28;20226;-67
2023/05/07 10:21:30;;;;;;;4.00;2.70;;;15.10;99.90;;;;;;5017876;28;20290;-64
2023/05/07 10:24:05;;;;;;;5.33;2.40;;;15.20;99.90;;;;;;5019238;28;20188;-64
2023/05/07 10:26:32;;;;;;;4.00;2.80;;;15.30;99.90;;;;;;5018610;28;20716;-64
2023/05/07 10:29:21;;;;;;;2.40;2.17;;;15.60;99.90;;;;;;5019635;28;20223;-64
2023/05/07 10:32:04;;;;;;;2.57;2.20;;;15.40;98.80;;;;;;5020553;28;20198;-67
2023/05/07 10:34:35;;;;;;;2.30;2.10;;;15.20;99.60;;;;;;5025295;28;20666;-68
2023/05/07 10:37:03;;;;;;;2.43;1.97;;;15.30;99.10;;;;;;5028343;28;20203;-69
2023/05/07 10:39:29;;;;;;;2.67;2.33;;;15.10;99.00;;;;;;5022455;28;20214;-68
2023/05/07 10:41:55;;;;;;;3.10;1.77;;;15.20;99.90;;;;;;5029201;28;20229;-68
2023/05/07 10:44:28;;;;;;;2.97;1.73;;;15.00;99.90;;;;;;5029300;28;20882;-68
2023/05/07 10:47:10;;;;;;;1.73;1.63;;;15.20;99.40;;;;;;5028761;28;20195;-66
2023/05/07 10:49:56;;;;;;;2.20;2.00;;;15.80;99.40;;;;;;5023912;28;20200;-67
2023/05/07 10:52:24;;;;;;;1.83;1.73;;;16.20;98.40;;;;;;5027602;28;20694;-67
2023/05/07 10:55:17;;;;;;;2.70;1.63;;;16.00;97.50;;;;;;5028722;28;20207;-67
2023/05/07 10:57:42;;;;;;;1.60;1.50;;;16.00;97.50;;;;;;5032191;28;20465;-67
2023/05/07 11:00:23;;;;;;;3.23;2.20;;;16.50;97.70;;;;;;5020020;28;20199;-65
2023/05/07 11:03:01;;;;;;;1.73;1.50;;;16.60;99.10;;;;;;5023373;28;20617;-65
2023/05/07 11:05:31;;;;;;;1.87;1.77;;;16.30;96.40;;;;;;5021595;28;20190;-65
2023/05/07 11:07:57;;;;;;;2.43;1.67;;;16.10;97.40;;;;;;5038360;28;20689;-66
2023/05/07 11:10:43;;;;;;;1.70;1.60;;;16.30;98.50;;;;;;5038498;28;20209;-66
2023/05/07 11:13:09;;;;;;;2.83;2.20;;;16.00;97.30;;;;;;5028929;28;20222;-66
2023/05/07 11:15:36;;;;;;;1.77;1.67;;;16.10;96.70;;;;;;5038236;28;20650;-64
2023/05/07 11:18:03;;;;;;;1.80;1.70;;;16.60;96.30;;;;;;5028886;28;20215;-63
2023/05/07 11:20:47;;;;;;;2.77;1.90;;;17.20;96.30;;;;;;5035529;28;20483;-66
2023/05/07 11:23:38;;;;;;;1.87;1.70;;;17.20;95.10;;;;;;5028932;28;20199;-68
2023/05/07 11:26:07;;;;;;;2.23;1.90;;;17.10;94.00;;;;;;5038280;28;20198;-69
2023/05/07 11:28:41;;;;;;;1.57;1.47;;;17.00;94.60;;;;;;5038538;28;20302;-68
2023/05/07 11:31:07;;;;;;;2.07;1.97;;;16.50;93.90;;;;;;5036816;28;20269;-67
2023/05/07 11:33:33;;;;;;;1.70;1.60;;;16.60;94.40;;;;;;5037177;28;20313;-67
2023/05/07 11:36:01;;;;;;;1.50;1.40;;;16.80;95.20;;;;;;5037060;28;20190;-67
2023/05/07 11:38:28;;;;;;;1.80;1.70;;;17.10;94.00;;;;;;5038200;28;20556;-68
2023/05/07 11:41:00;;;;;;;2.40;2.20;;;17.10;94.40;;;;;;5035470;28;20219;-68
2023/05/07 11:43:26;;;;;;;3.13;2.30;;;17.10;93.80;;;;;;5030164;28;20191;-68
2023/05/07 11:45:51;;;;;;;2.37;2.10;;;17.20;93.40;;;;;;5037682;28;20966;-68
2023/05/07 11:48:17;;;;;;;2.30;1.93;;;17.00;93.40;;;;;;5034132;28;20250;-68
2023/05/07 11:50:59;;;;;;;1.87;1.77;;;16.60;93.90;;;;;;5032081;28;20206;-67
2023/05/07 11:53:26;;;;;;;2.33;1.77;;;16.70;93.70;;;;;;5037960;28;20198;-67
2023/05/07 11:55:57;;;;;;;2.07;1.97;;;16.90;93.90;;;;;;5037228;28;20723;-68
2023/05/07 11:58:25;;;;;;;2.23;2.07;;;16.80;95.60;;;;;;5035676;28;20213;-69
2023/05/07 12:00:51;;;;;;;3.90;2.23;;;17.00;93.60;;;;;;5027080;28;20875;-69
2023/05/07 12:03:17;;;;;;;4.03;2.23;;;17.10;94.00;;;;;;5037653;28;20209;-68
2023/05/07 12:05:44;;;;;;;2.10;1.87;;;17.90;92.70;;;;;;5037870;28;20274;-68
2023/05/07 12:08:17;;;;;;;2.00;1.60;;;18.10;92.30;;;;;;5037364;28;20197;-68
2023/05/07 12:10:44;;;;;;;2.23;2.00;;;18.30;91.40;;;;;;5030591;28;20497;-69
2023/05/07 12:13:20;;;;;;;1.63;1.53;;;17.70;91.70;;;;;;5032543;28;20207;-67
2023/05/07 12:15:46;;;;;;;2.20;2.00;;;17.80;90.20;;;;;;5034208;28;20282;-67
2023/05/07 12:18:12;;;;;;;4.50;2.17;;;18.00;90.50;;;;;;5020647;28;20840;-67
2023/05/07 12:20:39;;;;;;;3.30;1.60;;;17.60;91.60;;;;;;5036362;28;20624;-67
2023/05/07 12:23:05;;;;;;;4.17;3.00;;;17.20;91.00;;;;;;5037327;28;20207;-66
2023/05/07 12:25:31;;;;;;;2.00;1.80;;;16.90;92.10;;;;;;5032908;28;20209;-65
2023/05/07 12:27:59;;;;;;;1.67;1.53;;;17.20;92.00;;;;;;5020619;28;20216;-66
2023/05/07 12:30:25;;;;;;;1.70;1.60;;;17.50;90.60;;;;;;5026633;28;20235;-66
2023/05/07 12:32:54;;;;;;;1.93;1.83;;;17.50;90.40;;;;;;5021341;28;20255;-66
2023/05/07 12:35:41;;;;;;;1.93;1.83;;;17.40;92.50;;;;;;5021920;28;20656;-66
2023/05/07 12:38:12;;;;;;;2.43;1.70;;;18.20;90.20;;;;;;5022502;28;20199;-67
2023/05/07 12:40:45;;;;;;;1.97;1.87;;;18.30;90.00;;;;;;5019626;28;20220;-66